sensor_id;sensor_type;location;lat;lon;timestamp;pressure;altitude;pressure_sealevel;temperature;humidity
2188;BME280;1100;52.014;8.540;2023-04-23T00:02:09;99304.06;;;10.59;82.32
2188;BME280;1100;52.014;8.540;2023-04-23T00:04:37;99305.13;;;10.53;82.67
2188;BME280;1100;52.014;8.540;2023-04-23T00:07:04;99307.38;;;10.45;82.60
2188;BME280;1100;52.014;8.540;2023-04-23T00:09:30;99309.22;;;10.39;82.54
2188;BME280;1100;52.014;8.540;2023-04-23T00:11:57;99290.06;;;10.31;83.45
2188;BME280;1100;52.014;8.540;2023-04-23T00:14:23;99294.66;;;10.25;83.17
2188;BME280;1100;52.014;8.540;2023-04-23T00:16:48;99294.66;;;10.25;84.61
2188;BME280;1100;52.014;8.540;2023-04-23T00:19:13;99290.94;;;10.19;83.69
2188;BME280;1100;52.014;8.540;2023-04-23T00:21:39;99290.31;;;10.15;83.63
2188;BME280;1100;52.014;8.540;2023-04-23T00:24:04;99288.00;;;10.13;83.83
2188;BME280;1100;52.014;8.540;2023-04-23T00:26:30;99298.31;;;10.13;84.03
2188;BME280;1100;52.014;8.540;2023-04-23T00:28:55;99292.88;;;10.09;84.02
2188;BME280;1100;52.014;8.540;2023-04-23T00:31:20;99288.25;;;10.06;83.66
2188;BME280;1100;52.014;8.540;2023-04-23T00:33:47;99295.50;;;10.03;83.76
2188;BME280;1100;52.014;8.540;2023-04-23T00:36:12;99293.63;;;10.00;83.37
2188;BME280;1100;52.014;8.540;2023-04-23T00:38:37;99300.41;;;9.99;83.18
2188;BME280;1100;52.014;8.540;2023-04-23T00:41:03;99294.41;;;10.01;84.12
2188;BME280;1100;52.014;8.540;2023-04-23T00:43:29;99303.66;;;9.97;83.13
2188;BME280;1100;52.014;8.540;2023-04-23T00:45:55;99286.34;;;9.93;83.16
2188;BME280;1100;52.014;8.540;2023-04-23T00:48:21;99284.47;;;9.90;82.97
2188;BME280;1100;52.014;8.540;2023-04-23T00:50:46;99287.69;;;9.89;83.12
2188;BME280;1100;52.014;8.540;2023-04-23T00:53:11;99291.25;;;9.89;82.93
2188;BME280;1100;52.014;8.540;2023-04-23T00:55:37;99288.94;;;9.88;82.84
2188;BME280;1100;52.014;8.540;2023-04-23T00:58:02;99286.63;;;9.86;82.97
2188;BME280;1100;52.014;8.540;2023-04-23T01:00:28;99294.63;;;9.84;82.86
2188;BME280;1100;52.014;8.540;2023-04-23T01:02:53;99293.84;;;9.83;82.50
2188;BME280;1100;52.014;8.540;2023-04-23T01:05:20;99288.31;;;9.83;82.65
2188;BME280;1100;52.014;8.540;2023-04-23T01:07:47;99291.22;;;9.80;82.41
2188;BME280;1100;52.014;8.540;2023-04-23T01:10:13;99292.00;;;9.80;82.54
2188;BME280;1100;52.014;8.540;2023-04-23T01:12:38;99291.53;;;9.82;82.21
2188;BME280;1100;52.014;8.540;2023-04-23T01:15:05;99293.19;;;9.79;82.38
2188;BME280;1100;52.014;8.540;2023-04-23T01:17:31;99291.31;;;9.76;82.01
2188;BME280;1100;52.014;8.540;2023-04-23T01:19:58;99289.00;;;9.75;81.94
2188;BME280;1100;52.014;8.540;2023-04-23T01:22:23;99291.78;;;9.75;82.21
2188;BME280;1100;52.014;8.540;2023-04-23T01:24:49;99289.91;;;9.71;81.84
2188;BME280;1100;52.014;8.540;2023-04-23T01:27:15;99301.78;;;9.72;82.02
2188;BME280;1100;52.014;8.540;2023-04-23T01:29:41;99293.47;;;9.72;81.93
2188;BME280;1100;52.014;8.540;2023-04-23T01:32:06;99294.56;;;9.75;81.80
2188;BME280;1100;52.014;8.540;2023-04-23T01:34:32;99299.34;;;9.74;82.02
2188;BME280;1100;52.014;8.540;2023-04-23T01:36:59;99302.13;;;9.74;81.52
2188;BME280;1100;52.014;8.540;2023-04-23T01:39:25;99299.34;;;9.74;82.37
2188;BME280;1100;52.014;8.540;2023-04-23T01:41:52;99301.78;;;9.72;82.07
2188;BME280;1100;52.014;8.540;2023-04-23T01:44:17;99301.47;;;9.70;82.05
2188;BME280;1100;52.014;8.540;2023-04-23T01:46:43;99302.56;;;9.72;81.71
2188;BME280;1100;52.014;8.540;2023-04-23T01:49:08;99317.22;;;9.73;82.66
2188;BME280;1100;52.014;8.540;2023-04-23T01:51:34;99313.22;;;9.74;82.44
2188;BME280;1100;52.014;8.540;2023-04-23T01:53:59;99315.66;;;9.72;82.22
2188;BME280;1100;52.014;8.540;2023-04-23T01:56:26;99319.53;;;9.75;82.72
2188;BME280;1100;52.014;8.540;2023-04-23T01:58:52;99320.44;;;9.71;82.41
2188;BME280;1100;52.014;8.540;2023-04-23T02:01:18;99318.00;;;9.74;82.52
2188;BME280;1100;52.014;8.540;2023-04-23T02:03:44;99324.31;;;9.74;82.38
2188;BME280;1100;52.014;8.540;2023-04-23T02:06:10;99320.31;;;9.75;82.42
2188;BME280;1100;52.014;8.540;2023-04-23T02:08:35;99315.66;;;9.72;82.25
2188;BME280;1100;52.014;8.540;2023-04-23T02:11:01;99322.13;;;9.69;82.71
2188;BME280;1100;52.014;8.540;2023-04-23T02:13:26;99317.16;;;9.64;82.77
2188;BME280;1100;52.014;8.540;2023-04-23T02:15:51;99318.38;;;9.63;82.78
2188;BME280;1100;52.014;8.540;2023-04-23T02:18:17;99314.81;;;9.62;82.65
2188;BME280;1100;52.014;8.540;2023-04-23T02:20:42;99314.97;;;9.58;82.52
2188;BME280;1100;52.014;8.540;2023-04-23T02:23:08;99311.53;;;9.54;82.25
2188;BME280;1100;52.014;8.540;2023-04-23T02:25:34;99308.13;;;9.50;82.22
2188;BME280;1100;52.014;8.540;2023-04-23T02:28:04;99311.47;;;9.45;82.10
2188;BME280;1100;52.014;8.540;2023-04-23T02:30:32;99324.81;;;9.37;81.80
2188;BME280;1100;52.014;8.540;2023-04-23T02:32:57;99323.38;;;9.32;81.98
2188;BME280;1100;52.014;8.540;2023-04-23T02:35:23;99325.19;;;9.26;82.32
2188;BME280;1100;52.014;8.540;2023-04-23T02:37:48;99334.41;;;9.23;82.51
2188;BME280;1100;52.014;8.540;2023-04-23T02:40:14;99325.09;;;9.17;82.30
2188;BME280;1100;52.014;8.540;2023-04-23T02:42:39;99325.66;;;9.12;82.25
2188;BME280;1100;52.014;8.540;2023-04-23T02:45:05;99321.78;;;9.09;82.04
2188;BME280;1100;52.014;8.540;2023-04-23T02:47:31;99327.44;;;9.05;81.97
2188;BME280;1100;52.014;8.540;2023-04-23T02:49:56;99321.59;;;9.03;82.03
2188;BME280;1100;52.014;8.540;2023-04-23T02:52:22;99328.69;;;9.04;81.99
2188;BME280;1100;52.014;8.540;2023-04-23T02:54:50;99328.34;;;9.02;82.18
2188;BME280;1100;52.014;8.540;2023-04-23T02:57:15;99330.81;;;9.00;82.24
2188;BME280;1100;52.014;8.540;2023-04-23T02:59:41;99332.00;;;8.99;81.88
2188;BME280;1100;52.014;8.540;2023-04-23T03:02:07;99325.81;;;8.95;81.85
2188;BME280;1100;52.014;8.540;2023-04-23T03:04:32;99331.94;;;8.90;81.88
2188;BME280;1100;52.014;8.540;2023-04-23T03:06:57;99339.94;;;8.88;81.77
2188;BME280;1100;52.014;8.540;2023-04-23T03:09:22;99342.38;;;8.85;81.91
2188;BME280;1100;52.014;8.540;2023-04-23T03:11:48;99340.47;;;8.82;81.87
2188;BME280;1100;52.014;8.540;2023-04-23T03:14:13;99340.94;;;8.81;81.51
2188;BME280;1100;52.014;8.540;2023-04-23T03:16:39;99352.91;;;8.78;81.50
2188;BME280;1100;52.014;8.540;2023-04-23T03:19:04;99352.25;;;8.74;81.61
2188;BME280;1100;52.014;8.540;2023-04-23T03:21:29;99352.34;;;8.70;81.46
2188;BME280;1100;52.014;8.540;2023-04-23T03:23:55;99352.78;;;8.68;81.26
2188;BME280;1100;52.014;8.540;2023-04-23T03:26:23;99362.34;;;8.67;81.17
2188;BME280;1100;52.014;8.540;2023-04-23T03:28:48;99352.59;;;8.63;81.04
2188;BME280;1100;52.014;8.540;2023-04-23T03:31:13;99353.47;;;8.59;80.91
2188;BME280;1100;52.014;8.540;2023-04-23T03:33:39;99344.38;;;8.59;81.11
2188;BME280;1100;52.014;8.540;2023-04-23T03:36:04;99338.06;;;8.58;80.93
2188;BME280;1100;52.014;8.540;2023-04-23T03:38:30;99343.59;;;8.58;80.97
2188;BME280;1100;52.014;8.540;2023-04-23T03:40:55;99340.81;;;8.58;81.09
2188;BME280;1100;52.014;8.540;2023-04-23T03:43:20;99344.38;;;8.59;81.20
2188;BME280;1100;52.014;8.540;2023-04-23T03:45:46;99347.94;;;8.59;81.03
2188;BME280;1100;52.014;8.540;2023-04-23T03:48:11;99343.94;;;8.60;81.09
2188;BME280;1100;52.014;8.540;2023-04-23T03:50:36;99349.47;;;8.60;80.92
2188;BME280;1100;52.014;8.540;2023-04-23T03:53:04;99356.25;;;8.59;80.69
2188;BME280;1100;52.014;8.540;2023-04-23T03:55:30;99357.56;;;8.55;80.92
2188;BME280;1100;52.014;8.540;2023-04-23T03:57:55;99363.97;;;8.52;80.85
2188;BME280;1100;52.014;8.540;2023-04-23T04:00:21;99365.63;;;8.49;80.68
2188;BME280;1100;52.014;8.540;2023-04-23T04:02:46;99357.75;;;8.47;80.80
2188;BME280;1100;52.014;8.540;2023-04-23T04:05:11;99360.97;;;8.46;80.88
2188;BME280;1100;52.014;8.540;2023-04-23T04:07:37;99360.22;;;8.45;80.84
2188;BME280;1100;52.014;8.540;2023-04-23T04:10:04;99359.31;;;8.48;80.65
2188;BME280;1100;52.014;8.540;2023-04-23T04:12:29;99362.09;;;8.48;80.75
2188;BME280;1100;52.014;8.540;2023-04-23T04:14:55;99352.22;;;8.47;80.72
2188;BME280;1100;52.014;8.540;2023-04-23T04:17:20;99358.19;;;8.46;80.56
2188;BME280;1100;52.014;8.540;2023-04-23T04:19:45;99357.09;;;8.43;80.69
2188;BME280;1100;52.014;8.540;2023-04-23T04:22:13;99360.31;;;8.42;80.68
2188;BME280;1100;52.014;8.540;2023-04-23T04:24:40;99366.72;;;8.39;80.56
2188;BME280;1100;52.014;8.540;2023-04-23T04:27:06;99347.78;;;8.37;80.52
2188;BME280;1100;52.014;8.540;2023-04-23T04:29:31;99352.53;;;8.37;80.36
2188;BME280;1100;52.014;8.540;2023-04-23T04:31:57;99347.88;;;8.33;80.44
2188;BME280;1100;52.014;8.540;2023-04-23T04:34:25;99344.81;;;8.31;80.17
2188;BME280;1100;52.014;8.540;2023-04-23T04:36:51;99343.22;;;8.30;80.08
2188;BME280;1100;52.014;8.540;2023-04-23T04:39:18;99349.13;;;8.32;80.30
2188;BME280;1100;52.014;8.540;2023-04-23T04:41:44;99339.25;;;8.31;80.80
2188;BME280;1100;52.014;8.540;2023-04-23T04:44:09;99340.81;;;8.32;80.46
2188;BME280;1100;52.014;8.540;2023-04-23T04:46:34;99344.66;;;8.35;80.04
2188;BME280;1100;52.014;8.540;2023-04-23T04:49:09;99333.72;;;8.31;80.58
2188;BME280;1100;52.014;8.540;2023-04-23T04:51:39;99336.50;;;8.31;80.56
2188;BME280;1100;52.014;8.540;2023-04-23T04:54:04;99339.56;;;8.33;80.62
2188;BME280;1100;52.014;8.540;2023-04-23T04:56:31;99339.25;;;8.31;80.32
2188;BME280;1100;52.014;8.540;2023-04-23T04:58:56;99338.47;;;8.31;80.35
2188;BME280;1100;52.014;8.540;2023-04-23T05:01:22;99340.81;;;8.32;80.36
2188;BME280;1100;52.014;8.540;2023-04-23T05:03:49;99344.81;;;8.31;80.40
2188;BME280;1100;52.014;8.540;2023-04-23T05:06:14;99337.69;;;8.30;80.61
2188;BME280;1100;52.014;8.540;2023-04-23T05:08:40;99333.72;;;8.31;80.24
2188;BME280;1100;52.014;8.540;2023-04-23T05:11:06;99324.19;;;8.32;80.36
2188;BME280;1100;52.014;8.540;2023-04-23T05:13:32;99338.81;;;8.33;80.32
2188;BME280;1100;52.014;8.540;2023-04-23T05:15:57;99333.72;;;8.31;80.37
2188;BME280;1100;52.014;8.540;2023-04-23T05:18:22;99339.13;;;8.35;80.09
2188;BME280;1100;52.014;8.540;2023-04-23T05:20:48;99348.31;;;8.32;80.01
2188;BME280;1100;52.014;8.540;2023-04-23T05:23:13;99348.78;;;8.30;79.91
2188;BME280;1100;52.014;8.540;2023-04-23T05:25:38;99340.16;;;8.28;79.57
2188;BME280;1100;52.014;8.540;2023-04-23T05:28:04;99349.66;;;8.27;80.05
2188;BME280;1100;52.014;8.540;2023-04-23T05:30:29;99357.19;;;8.27;79.91
2188;BME280;1100;52.014;8.540;2023-04-23T05:32:54;99343.34;;;8.27;80.03
2188;BME280;1100;52.014;8.540;2023-04-23T05:35:20;99342.13;;;8.28;79.89
2188;BME280;1100;52.014;8.540;2023-04-23T05:37:45;99347.56;;;8.31;79.97
2188;BME280;1100;52.014;8.540;2023-04-23T05:40:11;99349.13;;;8.32;79.94
2188;BME280;1100;52.014;8.540;2023-04-23T05:42:36;99352.66;;;8.33;79.90
2188;BME280;1100;52.014;8.540;2023-04-23T05:45:03;99355.00;;;8.34;79.85
2188;BME280;1100;52.014;8.540;2023-04-23T05:47:29;99347.78;;;8.37;80.06
2188;BME280;1100;52.014;8.540;2023-04-23T05:49:54;99351.56;;;8.43;80.08
2188;BME280;1100;52.014;8.540;2023-04-23T05:52:21;99349.88;;;8.46;79.80
2188;BME280;1100;52.014;8.540;2023-04-23T05:54:47;99340.59;;;8.53;80.38
2188;BME280;1100;52.014;8.540;2023-04-23T05:57:12;99344.81;;;8.57;80.05
2188;BME280;1100;52.014;8.540;2023-04-23T05:59:37;99341.72;;;8.68;80.30
2188;BME280;1100;52.014;8.540;2023-04-23T06:02:03;99347.47;;;8.74;80.47
2188;BME280;1100;52.014;8.540;2023-04-23T06:04:28;99345.81;;;8.77;80.53
2188;BME280;1100;52.014;8.540;2023-04-23T06:06:53;99343.94;;;8.74;80.40
2188;BME280;1100;52.014;8.540;2023-04-23T06:09:19;99337.94;;;8.75;80.28
2188;BME280;1100;52.014;8.540;2023-04-23T06:11:44;99324.84;;;8.76;80.46
2188;BME280;1100;52.014;8.540;2023-04-23T06:14:10;99326.41;;;8.77;80.47
2188;BME280;1100;52.014;8.540;2023-04-23T06:16:35;99340.81;;;8.84;80.06
2188;BME280;1100;52.014;8.540;2023-04-23T06:19:00;99338.91;;;8.94;80.68
2188;BME280;1100;52.014;8.540;2023-04-23T06:21:26;99343.97;;;9.09;80.48
2188;BME280;1100;52.014;8.540;2023-04-23T06:23:52;99343.06;;;9.25;80.59
2188;BME280;1100;52.014;8.540;2023-04-23T06:26:17;99339.22;;;9.45;80.25
2188;BME280;1100;52.014;8.540;2023-04-23T06:28:43;99338.72;;;9.59;80.65
2188;BME280;1100;52.014;8.540;2023-04-23T06:31:09;99333.88;;;9.73;80.81
2188;BME280;1100;52.014;8.540;2023-04-23T06:33:35;99332.56;;;9.87;80.96
2188;BME280;1100;52.014;8.540;2023-04-23T06:36:04;99333.41;;;9.97;80.29
2188;BME280;1100;52.014;8.540;2023-04-23T06:38:30;99325.75;;;10.10;80.52
2188;BME280;1100;52.014;8.540;2023-04-23T06:40:56;99328.78;;;10.26;80.31
2188;BME280;1100;52.014;8.540;2023-04-23T06:43:21;99322.19;;;10.42;80.25
2188;BME280;1100;52.014;8.540;2023-04-23T06:45:47;99332.31;;;10.58;80.00
2188;BME280;1100;52.014;8.540;2023-04-23T06:48:13;99333.75;;;10.72;79.82
2188;BME280;1100;52.014;8.540;2023-04-23T06:50:38;99332.56;;;10.82;79.63
2188;BME280;1100;52.014;8.540;2023-04-23T06:53:04;99332.41;;;10.95;79.55
2188;BME280;1100;52.014;8.540;2023-04-23T06:55:29;99320.84;;;11.06;79.34
2188;BME280;1100;52.014;8.540;2023-04-23T06:57:55;99332.16;;;11.21;79.17
2188;BME280;1100;52.014;8.540;2023-04-23T07:00:21;99334.16;;;11.30;78.53
2188;BME280;1100;52.014;8.540;2023-04-23T07:02:47;99321.97;;;11.37;78.42
2188;BME280;1100;52.014;8.540;2023-04-23T07:05:12;99323.97;;;11.46;78.11
2188;BME280;1100;52.014;8.540;2023-04-23T07:07:38;99319.63;;;11.54;78.09
2188;BME280;1100;52.014;8.540;2023-04-23T07:10:05;99307.25;;;11.65;77.49
2188;BME280;1100;52.014;8.540;2023-04-23T07:12:31;99323.31;;;11.79;77.54
2188;BME280;1100;52.014;8.540;2023-04-23T07:14:56;99319.25;;;11.99;77.58
2188;BME280;1100;52.014;8.540;2023-04-23T07:17:21;99314.13;;;12.16;77.00
2188;BME280;1100;52.014;8.540;2023-04-23T07:19:47;99319.34;;;12.33;76.77
2188;BME280;1100;52.014;8.540;2023-04-23T07:22:12;99311.88;;;12.39;76.23
2188;BME280;1100;52.014;8.540;2023-04-23T07:24:38;99304.84;;;12.53;76.20
2188;BME280;1100;52.014;8.540;2023-04-23T07:27:05;99315.28;;;12.68;75.88
2188;BME280;1100;52.014;8.540;2023-04-23T07:29:30;99304.69;;;12.81;75.35
2188;BME280;1100;52.014;8.540;2023-04-23T07:31:55;99311.44;;;12.90;75.18
2188;BME280;1100;52.014;8.540;2023-04-23T07:34:20;99303.25;;;13.11;73.84
2188;BME280;1100;52.014;8.540;2023-04-23T07:36:46;99290.91;;;13.42;73.87
2188;BME280;1100;52.014;8.540;2023-04-23T07:39:11;99290.88;;;13.66;73.76
2188;BME280;1100;52.014;8.540;2023-04-23T07:41:37;99292.03;;;14.05;72.00
2188;BME280;1100;52.014;8.540;2023-04-23T07:44:02;99299.88;;;14.37;72.74
2188;BME280;1100;52.014;8.540;2023-04-23T07:46:28;99281.41;;;14.60;70.94
2188;BME280;1100;52.014;8.540;2023-04-23T07:48:53;99290.69;;;14.87;70.10
2188;BME280;1100;52.014;8.540;2023-04-23T07:51:19;99277.69;;;14.84;66.75
2188;BME280;1100;52.014;8.540;2023-04-23T07:53:46;99272.97;;;14.96;67.17
2188;BME280;1100;52.014;8.540;2023-04-23T07:56:15;99275.34;;;15.03;66.21
2188;BME280;1100;52.014;8.540;2023-04-23T07:58:41;99274.06;;;15.25;66.79
2188;BME280;1100;52.014;8.540;2023-04-23T08:01:06;99281.94;;;15.48;66.37
2188;BME280;1100;52.014;8.540;2023-04-23T08:03:31;99281.56;;;15.61;64.60
2188;BME280;1100;52.014;8.540;2023-04-23T08:05:56;99275.22;;;15.66;63.75
2188;BME280;1100;52.014;8.540;2023-04-23T08:08:22;99275.31;;;15.72;62.95
2188;BME280;1100;52.014;8.540;2023-04-23T08:10:47;99281.00;;;15.56;62.59
2188;BME280;1100;52.014;8.540;2023-04-23T08:13:12;99286.94;;;15.64;62.99
2188;BME280;1100;52.014;8.540;2023-04-23T08:15:38;99284.69;;;15.68;61.63
2188;BME280;1100;52.014;8.540;2023-04-23T08:18:03;99289.31;;;15.72;61.00
2188;BME280;1100;52.014;8.540;2023-04-23T08:20:29;99284.19;;;15.70;61.68
2188;BME280;1100;52.014;8.540;2023-04-23T08:22:56;99281.66;;;15.72;61.17
2188;BME280;1100;52.014;8.540;2023-04-23T08:25:21;99280.72;;;15.81;61.89
2188;BME280;1100;52.014;8.540;2023-04-23T08:27:46;99279.78;;;15.90;60.71
2188;BME280;1100;52.014;8.540;2023-04-23T08:30:12;99271.38;;;15.90;59.56
2188;BME280;1100;52.014;8.540;2023-04-23T08:32:38;99268.56;;;15.90;60.95
2188;BME280;1100;52.014;8.540;2023-04-23T08:35:03;99264.63;;;16.02;60.47
2188;BME280;1100;52.014;8.540;2023-04-23T08:37:29;99267.03;;;16.21;61.74
2188;BME280;1100;52.014;8.540;2023-04-23T08:39:54;99274.75;;;16.32;60.86
2188;BME280;1100;52.014;8.540;2023-04-23T08:42:29;99273.81;;;16.41;60.77
2188;BME280;1100;52.014;8.540;2023-04-23T08:44:58;99273.56;;;16.44;60.73
2188;BME280;1100;52.014;8.540;2023-04-23T08:47:24;99270.63;;;16.60;60.74
2188;BME280;1100;52.014;8.540;2023-04-23T08:49:52;99280.03;;;16.56;60.72
2188;BME280;1100;52.014;8.540;2023-04-23T08:52:22;99267.03;;;16.59;60.36
2188;BME280;1100;52.014;8.540;2023-04-23T08:54:51;99268.31;;;16.64;60.70
2188;BME280;1100;52.014;8.540;2023-04-23T08:57:17;99271.50;;;16.89;60.10
2188;BME280;1100;52.014;8.540;2023-04-23T08:59:44;99260.78;;;16.93;60.13
2188;BME280;1100;52.014;8.540;2023-04-23T09:02:10;99266.53;;;17.16;60.82
2188;BME280;1100;52.014;8.540;2023-04-23T09:04:36;99259.16;;;17.30;57.99
2188;BME280;1100;52.014;8.540;2023-04-23T09:07:02;99269.63;;;17.24;57.98
2188;BME280;1100;52.014;8.540;2023-04-23T09:09:29;99261.66;;;17.11;58.16
2188;BME280;1100;52.014;8.540;2023-04-23T09:11:55;99255.25;;;17.10;57.59
2188;BME280;1100;52.014;8.540;2023-04-23T09:14:24;99255.78;;;17.09;58.74
2188;BME280;1100;52.014;8.540;2023-04-23T09:16:50;99260.44;;;17.40;56.89
2188;BME280;1100;52.014;8.540;2023-04-23T09:19:17;99245.94;;;17.53;57.70
2188;BME280;1100;52.014;8.540;2023-04-23T09:21:44;99254.38;;;17.88;58.51
2188;BME280;1100;52.014;8.540;2023-04-23T09:24:10;99242.88;;;18.14;57.71
2188;BME280;1100;52.014;8.540;2023-04-23T09:26:43;99233.66;;;18.14;57.61
2188;BME280;1100;52.014;8.540;2023-04-23T09:29:18;99251.06;;;18.01;55.71
2188;BME280;1100;52.014;8.540;2023-04-23T09:31:45;99245.44;;;18.01;56.63
2188;BME280;1100;52.014;8.540;2023-04-23T09:34:14;99231.84;;;18.11;56.28
2188;BME280;1100;52.014;8.540;2023-04-23T09:36:41;99240.28;;;18.11;56.42
2188;BME280;1100;52.014;8.540;2023-04-23T09:39:13;99238.03;;;17.80;56.10
2188;BME280;1100;52.014;8.540;2023-04-23T09:41:39;99232.91;;;17.73;56.25
2188;BME280;1100;52.014;8.540;2023-04-23T09:44:05;99220.91;;;17.61;56.41
2188;BME280;1100;52.014;8.540;2023-04-23T09:46:40;99220.13;;;17.95;57.01
2188;BME280;1100;52.014;8.540;2023-04-23T09:49:06;99211.69;;;18.12;56.11
2188;BME280;1100;52.014;8.540;2023-04-23T09:51:52;99227.78;;;18.29;56.49
2188;BME280;1100;52.014;8.540;2023-04-23T09:54:20;99233.59;;;18.54;55.77
2188;BME280;1100;52.014;8.540;2023-04-23T09:56:52;99240.59;;;18.89;56.46
2188;BME280;1100;52.014;8.540;2023-04-23T10:01:49;99234.69;;;18.16;55.64
2188;BME280;1100;52.014;8.540;2023-04-23T10:04:19;99228.81;;;17.51;56.22
2188;BME280;1100;52.014;8.540;2023-04-23T10:06:45;99221.22;;;16.79;56.23
2188;BME280;1100;52.014;8.540;2023-04-23T10:09:11;99219.94;;;16.25;57.28
2188;BME280;1100;52.014;8.540;2023-04-23T10:11:37;99215.84;;;15.94;58.03
2188;BME280;1100;52.014;8.540;2023-04-23T10:14:03;99216.50;;;15.77;59.04
2188;BME280;1100;52.014;8.540;2023-04-23T10:16:29;99208.47;;;15.59;59.21
2188;BME280;1100;52.014;8.540;2023-04-23T10:18:55;99209.03;;;15.36;59.61
2188;BME280;1100;52.014;8.540;2023-04-23T10:21:25;99217.03;;;15.23;60.19
2188;BME280;1100;52.014;8.540;2023-04-23T10:23:54;99217.19;;;15.13;60.34
2188;BME280;1100;52.014;8.540;2023-04-23T10:26:22;99217.81;;;15.23;60.79
2188;BME280;1100;52.014;8.540;2023-04-23T10:28:53;99214.34;;;15.93;60.64
2188;BME280;1100;52.014;8.540;2023-04-23T10:31:19;99214.94;;;17.13;59.84
2188;BME280;1100;52.014;8.540;2023-04-23T10:33:47;99220.91;;;18.13;58.29
2188;BME280;1100;52.014;8.540;2023-04-23T10:36:14;99210.22;;;18.76;57.69
2188;BME280;1100;52.014;8.540;2023-04-23T10:38:41;99223.22;;;19.39;55.00
2188;BME280;1100;52.014;8.540;2023-04-23T10:41:07;99213.88;;;19.55;53.31
2188;BME280;1100;52.014;8.540;2023-04-23T10:43:33;99211.66;;;19.42;51.91
2188;BME280;1100;52.014;8.540;2023-04-23T10:45:59;99214.31;;;19.29;51.90
2188;BME280;1100;52.014;8.540;2023-04-23T10:48:27;99207.69;;;19.26;51.33
2188;BME280;1100;52.014;8.540;2023-04-23T10:50:58;99207.78;;;18.44;52.81
2188;BME280;1100;52.014;8.540;2023-04-23T10:53:24;99195.88;;;17.69;53.94
2188;BME280;1100;52.014;8.540;2023-04-23T10:56:03;99200.19;;;17.36;54.60
2188;BME280;1100;52.014;8.540;2023-04-23T10:58:47;99190.69;;;17.10;55.36
2188;BME280;1100;52.014;8.540;2023-04-23T11:01:13;99193.00;;;17.12;55.84
2188;BME280;1100;52.014;8.540;2023-04-23T11:03:39;99188.44;;;17.20;56.34
2188;BME280;1100;52.014;8.540;2023-04-23T11:06:06;99190.72;;;17.22;56.25
2188;BME280;1100;52.014;8.540;2023-04-23T11:08:34;99197.09;;;17.16;55.43
2188;BME280;1100;52.014;8.540;2023-04-23T11:11:02;99207.88;;;17.52;54.82
2188;BME280;1100;52.014;8.540;2023-04-23T11:13:30;99201.00;;;17.65;55.05
2188;BME280;1100;52.014;8.540;2023-04-23T11:16:15;99204.53;;;17.31;55.25
2188;BME280;1100;52.014;8.540;2023-04-23T11:19:03;99192.19;;;17.00;55.42
2188;BME280;1100;52.014;8.540;2023-04-23T11:21:57;99184.19;;;16.69;56.32
2188;BME280;1100;52.014;8.540;2023-04-23T11:24:26;99189.19;;;16.48;56.62
2188;BME280;1100;52.014;8.540;2023-04-23T11:26:51;99191.91;;;16.31;56.81
2188;BME280;1100;52.014;8.540;2023-04-23T11:29:25;99192.41;;;16.24;57.01
2188;BME280;1100;52.014;8.540;2023-04-23T11:31:52;99180.63;;;16.14;57.46
2188;BME280;1100;52.014;8.540;2023-04-23T11:34:18;99193.16;;;16.24;57.69
2188;BME280;1100;52.014;8.540;2023-04-23T11:36:44;99185.13;;;16.49;57.51
2188;BME280;1100;52.014;8.540;2023-04-23T11:39:10;99184.53;;;17.00;56.82
2188;BME280;1100;52.014;8.540;2023-04-23T11:41:36;99176.19;;;17.40;56.55
2188;BME280;1100;52.014;8.540;2023-04-23T11:44:02;99172.09;;;17.70;56.49
2188;BME280;1100;52.014;8.540;2023-04-23T11:46:28;99161.13;;;17.84;56.13
2188;BME280;1100;52.014;8.540;2023-04-23T11:48:54;99164.44;;;17.88;55.85
2188;BME280;1100;52.014;8.540;2023-04-23T11:51:24;99160.31;;;17.89;55.70
2188;BME280;1100;52.014;8.540;2023-04-23T11:53:50;99159.06;;;17.78;54.18
2188;BME280;1100;52.014;8.540;2023-04-23T11:56:15;99156.00;;;17.76;54.93
2188;BME280;1100;52.014;8.540;2023-04-23T11:58:41;99160.88;;;17.76;54.49
2188;BME280;1100;52.014;8.540;2023-04-23T12:01:06;99158.31;;;17.61;53.02
2188;BME280;1100;52.014;8.540;2023-04-23T12:03:32;99153.19;;;17.30;53.58
2188;BME280;1100;52.014;8.540;2023-04-23T12:05:57;99153.97;;;17.14;53.95
2188;BME280;1100;52.014;8.540;2023-04-23T12:08:23;99149.88;;;17.09;54.47
2188;BME280;1100;52.014;8.540;2023-04-23T12:10:53;99147.56;;;17.08;54.59
2188;BME280;1100;52.014;8.540;2023-04-23T12:13:23;99144.97;;;17.04;54.86
2188;BME280;1100;52.014;8.540;2023-04-23T12:15:53;99145.22;;;16.94;54.91
2188;BME280;1100;52.014;8.540;2023-04-23T12:18:38;99142.41;;;16.89;54.89
2188;BME280;1100;52.014;8.540;2023-04-23T12:21:10;99153.13;;;16.85;55.00
2188;BME280;1100;52.014;8.540;2023-04-23T12:23:37;99138.31;;;16.78;55.07
2188;BME280;1100;52.014;8.540;2023-04-23T12:26:03;99141.66;;;16.94;55.33
2188;BME280;1100;52.014;8.540;2023-04-23T12:28:34;99142.22;;;17.15;55.17
2188;BME280;1100;52.014;8.540;2023-04-23T12:31:09;99127.94;;;17.36;54.67
2188;BME280;1100;52.014;8.540;2023-04-23T12:33:34;99121.28;;;17.45;54.08
2188;BME280;1100;52.014;8.540;2023-04-23T12:35:59;99119.00;;;17.38;54.46
2188;BME280;1100;52.014;8.540;2023-04-23T12:38:26;99125.63;;;17.35;54.60
2188;BME280;1100;52.014;8.540;2023-04-23T12:40:53;99123.34;;;17.39;55.26
2188;BME280;1100;52.014;8.540;2023-04-23T12:43:19;99123.34;;;17.45;55.20
2188;BME280;1100;52.014;8.540;2023-04-23T12:45:44;99125.63;;;17.52;55.43
2188;BME280;1100;52.014;8.540;2023-04-23T12:48:10;99116.44;;;17.63;55.19
2188;BME280;1100;52.014;8.540;2023-04-23T12:50:36;99118.44;;;17.85;55.12
2188;BME280;1100;52.014;8.540;2023-04-23T12:53:02;99113.53;;;18.14;55.50
2188;BME280;1100;52.014;8.540;2023-04-23T12:55:27;99111.09;;;18.47;54.96
2188;BME280;1100;52.014;8.540;2023-04-23T12:57:52;99111.69;;;18.28;53.76
2188;BME280;1100;52.014;8.540;2023-04-23T13:00:18;99106.16;;;17.94;54.05
2188;BME280;1100;52.014;8.540;2023-04-23T13:02:43;99102.38;;;17.68;55.01
2188;BME280;1100;52.014;8.540;2023-04-23T13:05:09;99106.97;;;17.54;54.97
2188;BME280;1100;52.014;8.540;2023-04-23T13:07:34;99098.81;;;17.28;55.04
2188;BME280;1100;52.014;8.540;2023-04-23T13:09:59;99096.78;;;17.34;55.65
2188;BME280;1100;52.014;8.540;2023-04-23T13:12:25;99092.44;;;17.50;55.10
2188;BME280;1100;52.014;8.540;2023-04-23T13:14:50;99086.06;;;17.44;54.95
2188;BME280;1100;52.014;8.540;2023-04-23T13:17:16;99092.97;;;17.31;54.67
2188;BME280;1100;52.014;8.540;2023-04-23T13:19:41;99078.66;;;17.18;54.89
2188;BME280;1100;52.014;8.540;2023-04-23T13:22:06;99075.34;;;17.19;55.35
2188;BME280;1100;52.014;8.540;2023-04-23T13:24:32;99069.22;;;17.21;55.34
2188;BME280;1100;52.014;8.540;2023-04-23T13:26:58;99061.53;;;17.27;54.80